sensor_id;sensor_type;location;lat;lon;timestamp;P1;durP1;ratioP1;P2;durP2;ratioP2
15950;SDS011;8074;48.112;11.570;2022-08-05T00:02:11;5.50;;;4.60;;
15950;SDS011;8074;48.112;11.570;2022-08-05T00:04:39;5.63;;;4.23;;
15950;SDS011;8074;48.112;11.570;2022-08-05T00:07:06;7.93;;;5.00;;
15950;SDS011;8074;48.112;11.570;2022-08-05T00:09:33;4.83;;;4.40;;
15950;SDS011;8074;48.112;11.570;2022-08-05T00:12:00;4.90;;;4.47;;
15950;SDS011;8074;48.112;11.570;2022-08-05T00:14:27;4.80;;;4.40;;
15950;SDS011;8074;48.112;11.570;2022-08-05T00:16:54;5.37;;;4.10;;
15950;SDS011;8074;48.112;11.570;2022-08-05T00:19:23;5.30;;;4.53;;
15950;SDS011;8074;48.112;11.570;2022-08-05T00:21:50;6.83;;;4.47;;
15950;SDS011;8074;48.112;11.570;2022-08-05T00:24:17;6.10;;;4.33;;
15950;SDS011;8074;48.112;11.570;2022-08-05T00:26:45;6.67;;;4.90;;
15950;SDS011;8074;48.112;11.570;2022-08-05T00:29:12;5.57;;;4.70;;
15950;SDS011;8074;48.112;11.570;2022-08-05T00:31:39;5.50;;;5.00;;
15950;SDS011;8074;48.112;11.570;2022-08-05T00:34:06;5.83;;;4.70;;
15950;SDS011;8074;48.112;11.570;2022-08-05T00:36:34;5.80;;;4.43;;
15950;SDS011;8074;48.112;11.570;2022-08-05T00:39:02;6.50;;;4.40;;
15950;SDS011;8074;48.112;11.570;2022-08-05T00:41:30;4.63;;;4.23;;
15950;SDS011;8074;48.112;11.570;2022-08-05T00:43:59;4.40;;;4.00;;
15950;SDS011;8074;48.112;11.570;2022-08-05T00:46:26;5.93;;;4.40;;
15950;SDS011;8074;48.112;11.570;2022-08-05T00:48:53;4.93;;;4.27;;
15950;SDS011;8074;48.112;11.570;2022-08-05T00:51:20;5.27;;;4.40;;
15950;SDS011;8074;48.112;11.570;2022-08-05T00:53:50;5.10;;;4.03;;
15950;SDS011;8074;48.112;11.570;2022-08-05T00:56:17;5.03;;;4.33;;
15950;SDS011;8074;48.112;11.570;2022-08-05T00:58:44;5.47;;;4.33;;
15950;SDS011;8074;48.112;11.570;2022-08-05T01:01:11;6.80;;;4.30;;
15950;SDS011;8074;48.112;11.570;2022-08-05T01:03:39;5.43;;;4.07;;
15950;SDS011;8074;48.112;11.570;2022-08-05T01:06:10;5.20;;;4.40;;
15950;SDS011;8074;48.112;11.570;2022-08-05T01:08:37;5.80;;;4.37;;
15950;SDS011;8074;48.112;11.570;2022-08-05T01:11:08;4.30;;;3.90;;
15950;SDS011;8074;48.112;11.570;2022-08-05T01:13:42;4.70;;;4.20;;
15950;SDS011;8074;48.112;11.570;2022-08-05T01:16:17;4.40;;;4.00;;
15950;SDS011;8074;48.112;11.570;2022-08-05T01:18:50;5.67;;;4.07;;
15950;SDS011;8074;48.112;11.570;2022-08-05T01:21:33;4.57;;;4.07;;
15950;SDS011;8074;48.112;11.570;2022-08-05T01:24:13;4.63;;;4.13;;
15950;SDS011;8074;48.112;11.570;2022-08-05T01:26:56;4.50;;;4.10;;
15950;SDS011;8074;48.112;11.570;2022-08-05T01:29:30;4.70;;;4.30;;
15950;SDS011;8074;48.112;11.570;2022-08-05T01:32:02;5.00;;;4.10;;
15950;SDS011;8074;48.112;11.570;2022-08-05T01:34:37;4.60;;;4.17;;
15950;SDS011;8074;48.112;11.570;2022-08-05T01:37:10;4.20;;;3.80;;
15950;SDS011;8074;48.112;11.570;2022-08-05T01:39:41;5.87;;;4.27;;
15950;SDS011;8074;48.112;11.570;2022-08-05T01:42:12;5.17;;;4.03;;
15950;SDS011;8074;48.112;11.570;2022-08-05T01:44:43;5.63;;;4.50;;
15950;SDS011;8074;48.112;11.570;2022-08-05T01:47:11;4.50;;;4.10;;
15950;SDS011;8074;48.112;11.570;2022-08-05T01:49:43;4.57;;;4.10;;
15950;SDS011;8074;48.112;11.570;2022-08-05T01:52:11;5.93;;;4.30;;
15950;SDS011;8074;48.112;11.570;2022-08-05T01:54:40;7.10;;;4.07;;
15950;SDS011;8074;48.112;11.570;2022-08-05T01:57:11;4.83;;;4.40;;
15950;SDS011;8074;48.112;11.570;2022-08-05T01:59:43;4.67;;;4.23;;
15950;SDS011;8074;48.112;11.570;2022-08-05T02:02:13;4.20;;;3.80;;
15950;SDS011;8074;48.112;11.570;2022-08-05T02:04:42;4.73;;;4.13;;
15950;SDS011;8074;48.112;11.570;2022-08-05T02:07:11;4.70;;;4.30;;
15950;SDS011;8074;48.112;11.570;2022-08-05T02:09:38;4.70;;;4.13;;
15950;SDS011;8074;48.112;11.570;2022-08-05T02:12:06;4.67;;;4.27;;
15950;SDS011;8074;48.112;11.570;2022-08-05T02:14:39;4.80;;;4.37;;
15950;SDS011;8074;48.112;11.570;2022-08-05T02:17:15;5.00;;;4.37;;
15950;SDS011;8074;48.112;11.570;2022-08-05T02:19:47;4.47;;;4.07;;
15950;SDS011;8074;48.112;11.570;2022-08-05T02:22:22;6.50;;;4.20;;
15950;SDS011;8074;48.112;11.570;2022-08-05T02:24:55;9.47;;;4.70;;
15950;SDS011;8074;48.112;11.570;2022-08-05T02:27:28;4.90;;;4.50;;
15950;SDS011;8074;48.112;11.570;2022-08-05T02:30:00;5.97;;;4.37;;
15950;SDS011;8074;48.112;11.570;2022-08-05T02:32:28;4.87;;;4.37;;
15950;SDS011;8074;48.112;11.570;2022-08-05T02:34:57;5.70;;;4.63;;
15950;SDS011;8074;48.112;11.570;2022-08-05T02:37:26;5.60;;;4.70;;
15950;SDS011;8074;48.112;11.570;2022-08-05T02:39:57;4.77;;;4.33;;
15950;SDS011;8074;48.112;11.570;2022-08-05T02:42:26;4.77;;;4.27;;
15950;SDS011;8074;48.112;11.570;2022-08-05T02:44:54;4.70;;;4.20;;
15950;SDS011;8074;48.112;11.570;2022-08-05T02:47:23;4.80;;;4.20;;
15950;SDS011;8074;48.112;11.570;2022-08-05T02:49:52;4.93;;;4.10;;
15950;SDS011;8074;48.112;11.570;2022-08-05T02:52:20;5.40;;;4.57;;
15950;SDS011;8074;48.112;11.570;2022-08-05T02:54:48;6.40;;;4.70;;
15950;SDS011;8074;48.112;11.570;2022-08-05T02:57:17;5.77;;;4.80;;
15950;SDS011;8074;48.112;11.570;2022-08-05T02:59:46;4.67;;;4.13;;
15950;SDS011;8074;48.112;11.570;2022-08-05T03:02:16;4.47;;;3.97;;
15950;SDS011;8074;48.112;11.570;2022-08-05T03:04:47;4.97;;;4.57;;
15950;SDS011;8074;48.112;11.570;2022-08-05T03:07:16;5.37;;;4.77;;
15950;SDS011;8074;48.112;11.570;2022-08-05T03:09:44;7.37;;;4.60;;
15950;SDS011;8074;48.112;11.570;2022-08-05T03:14:57;6.63;;;4.70;;
15950;SDS011;8074;48.112;11.570;2022-08-05T03:17:24;5.50;;;4.40;;
15950;SDS011;8074;48.112;11.570;2022-08-05T03:19:53;5.20;;;4.57;;
15950;SDS011;8074;48.112;11.570;2022-08-05T03:22:20;5.90;;;4.90;;
15950;SDS011;8074;48.112;11.570;2022-08-05T03:24:48;6.50;;;4.93;;
15950;SDS011;8074;48.112;11.570;2022-08-05T03:27:16;5.03;;;4.53;;
15950;SDS011;8074;48.112;11.570;2022-08-05T03:29:44;6.27;;;5.03;;
15950;SDS011;8074;48.112;11.570;2022-08-05T03:32:11;5.03;;;4.53;;
15950;SDS011;8074;48.112;11.570;2022-08-05T03:34:40;5.03;;;4.50;;
15950;SDS011;8074;48.112;11.570;2022-08-05T03:37:09;6.83;;;4.53;;
15950;SDS011;8074;48.112;11.570;2022-08-05T03:39:36;7.60;;;4.83;;
15950;SDS011;8074;48.112;11.570;2022-08-05T03:42:04;7.47;;;4.90;;
15950;SDS011;8074;48.112;11.570;2022-08-05T03:44:32;5.20;;;4.70;;
15950;SDS011;8074;48.112;11.570;2022-08-05T03:47:00;5.80;;;4.70;;
15950;SDS011;8074;48.112;11.570;2022-08-05T03:49:28;4.90;;;4.40;;
15950;SDS011;8074;48.112;11.570;2022-08-05T03:51:57;5.20;;;4.33;;
15950;SDS011;8074;48.112;11.570;2022-08-05T03:54:33;6.17;;;5.00;;
15950;SDS011;8074;48.112;11.570;2022-08-05T03:57:05;7.10;;;4.87;;
15950;SDS011;8074;48.112;11.570;2022-08-05T03:59:39;5.60;;;5.00;;
15950;SDS011;8074;48.112;11.570;2022-08-05T04:02:07;5.13;;;4.63;;
15950;SDS011;8074;48.112;11.570;2022-08-05T04:04:36;6.23;;;4.70;;
15950;SDS011;8074;48.112;11.570;2022-08-05T04:07:04;6.80;;;4.97;;
15950;SDS011;8074;48.112;11.570;2022-08-05T04:09:33;8.40;;;5.00;;
15950;SDS011;8074;48.112;11.570;2022-08-05T04:12:01;9.53;;;5.57;;
15950;SDS011;8074;48.112;11.570;2022-08-05T04:14:29;5.83;;;4.73;;
15950;SDS011;8074;48.112;11.570;2022-08-05T04:16:57;5.13;;;4.73;;
15950;SDS011;8074;48.112;11.570;2022-08-05T04:19:25;5.20;;;4.70;;
15950;SDS011;8074;48.112;11.570;2022-08-05T04:21:53;8.17;;;4.53;;
15950;SDS011;8074;48.112;11.570;2022-08-05T04:24:21;6.23;;;4.27;;
15950;SDS011;8074;48.112;11.570;2022-08-05T04:26:49;5.97;;;4.80;;
15950;SDS011;8074;48.112;11.570;2022-08-05T04:29:17;5.13;;;4.20;;
15950;SDS011;8074;48.112;11.570;2022-08-05T04:31:44;7.10;;;4.27;;
15950;SDS011;8074;48.112;11.570;2022-08-05T04:34:11;6.67;;;4.90;;
15950;SDS011;8074;48.112;11.570;2022-08-05T04:36:39;6.40;;;4.33;;
15950;SDS011;8074;48.112;11.570;2022-08-05T04:39:06;6.00;;;4.40;;
15950;SDS011;8074;48.112;11.570;2022-08-05T04:41:33;5.07;;;4.57;;
15950;SDS011;8074;48.112;11.570;2022-08-05T04:44:03;6.73;;;4.43;;
15950;SDS011;8074;48.112;11.570;2022-08-05T04:46:39;4.27;;;3.87;;
15950;SDS011;8074;48.112;11.570;2022-08-05T04:49:08;6.30;;;4.10;;
15950;SDS011;8074;48.112;11.570;2022-08-05T04:51:35;4.17;;;3.77;;
15950;SDS011;8074;48.112;11.570;2022-08-05T04:54:06;4.60;;;4.17;;
15950;SDS011;8074;48.112;11.570;2022-08-05T04:56:39;4.30;;;3.90;;
15950;SDS011;8074;48.112;11.570;2022-08-05T04:59:17;5.60;;;4.33;;
15950;SDS011;8074;48.112;11.570;2022-08-05T05:01:44;6.80;;;3.90;;
15950;SDS011;8074;48.112;11.570;2022-08-05T05:04:11;4.93;;;3.80;;
15950;SDS011;8074;48.112;11.570;2022-08-05T05:06:39;4.57;;;3.90;;
15950;SDS011;8074;48.112;11.570;2022-08-05T05:09:27;6.37;;;4.17;;
15950;SDS011;8074;48.112;11.570;2022-08-05T05:11:55;4.47;;;4.07;;
15950;SDS011;8074;48.112;11.570;2022-08-05T05:14:24;7.73;;;3.87;;
15950;SDS011;8074;48.112;11.570;2022-08-05T05:16:52;3.87;;;3.57;;
15950;SDS011;8074;48.112;11.570;2022-08-05T05:19:22;4.20;;;3.70;;
15950;SDS011;8074;48.112;11.570;2022-08-05T05:22:07;5.20;;;3.97;;
15950;SDS011;8074;48.112;11.570;2022-08-05T05:25:22;4.93;;;3.83;;
15950;SDS011;8074;48.112;11.570;2022-08-05T05:27:52;5.70;;;4.50;;
15950;SDS011;8074;48.112;11.570;2022-08-05T05:30:20;6.73;;;4.10;;
15950;SDS011;8074;48.112;11.570;2022-08-05T05:32:47;6.93;;;3.53;;
15950;SDS011;8074;48.112;11.570;2022-08-05T05:35:14;6.90;;;4.27;;
15950;SDS011;8074;48.112;11.570;2022-08-05T05:37:45;4.73;;;4.07;;
15950;SDS011;8074;48.112;11.570;2022-08-05T05:40:13;4.97;;;3.67;;
15950;SDS011;8074;48.112;11.570;2022-08-05T05:42:47;5.90;;;3.60;;
15950;SDS011;8074;48.112;11.570;2022-08-05T05:45:15;4.23;;;3.33;;
15950;SDS011;8074;48.112;11.570;2022-08-05T05:47:42;8.40;;;4.03;;
15950;SDS011;8074;48.112;11.570;2022-08-05T05:50:11;8.60;;;4.00;;
15950;SDS011;8074;48.112;11.570;2022-08-05T05:52:39;5.77;;;3.57;;
15950;SDS011;8074;48.112;11.570;2022-08-05T05:55:20;6.70;;;3.63;;
15950;SDS011;8074;48.112;11.570;2022-08-05T06:00:31;7.83;;;3.27;;
15950;SDS011;8074;48.112;11.570;2022-08-05T06:03:18;6.50;;;3.60;;
15950;SDS011;8074;48.112;11.570;2022-08-05T06:06:06;5.03;;;3.13;;
15950;SDS011;8074;48.112;11.570;2022-08-05T06:08:51;4.07;;;3.13;;
15950;SDS011;8074;48.112;11.570;2022-08-05T06:11:18;4.20;;;3.63;;
15950;SDS011;8074;48.112;11.570;2022-08-05T06:13:45;3.30;;;3.00;;
15950;SDS011;8074;48.112;11.570;2022-08-05T06:16:15;5.43;;;3.03;;
15950;SDS011;8074;48.112;11.570;2022-08-05T06:18:43;6.17;;;3.00;;
15950;SDS011;8074;48.112;11.570;2022-08-05T06:21:10;4.17;;;3.33;;
15950;SDS011;8074;48.112;11.570;2022-08-05T06:23:37;4.03;;;3.23;;
15950;SDS011;8074;48.112;11.570;2022-08-05T06:26:04;5.20;;;3.07;;
15950;SDS011;8074;48.112;11.570;2022-08-05T06:28:30;5.27;;;3.30;;
15950;SDS011;8074;48.112;11.570;2022-08-05T06:30:57;4.10;;;2.80;;
15950;SDS011;8074;48.112;11.570;2022-08-05T06:33:26;3.57;;;2.97;;
15950;SDS011;8074;48.112;11.570;2022-08-05T06:35:53;4.53;;;3.10;;
15950;SDS011;8074;48.112;11.570;2022-08-05T06:38:20;5.70;;;3.03;;
15950;SDS011;8074;48.112;11.570;2022-08-05T06:40:49;9.10;;;3.10;;
15950;SDS011;8074;48.112;11.570;2022-08-05T06:43:16;4.33;;;3.17;;
15950;SDS011;8074;48.112;11.570;2022-08-05T06:45:43;3.77;;;3.23;;
15950;SDS011;8074;48.112;11.570;2022-08-05T06:48:11;4.10;;;2.97;;
15950;SDS011;8074;48.112;11.570;2022-08-05T06:50:40;6.43;;;2.90;;
15950;SDS011;8074;48.112;11.570;2022-08-05T06:53:07;6.77;;;2.90;;
15950;SDS011;8074;48.112;11.570;2022-08-05T06:55:34;5.13;;;3.00;;
15950;SDS011;8074;48.112;11.570;2022-08-05T06:58:01;7.27;;;3.33;;
15950;SDS011;8074;48.112;11.570;2022-08-05T07:00:30;6.33;;;3.47;;
15950;SDS011;8074;48.112;11.570;2022-08-05T07:02:58;5.80;;;3.27;;
15950;SDS011;8074;48.112;11.570;2022-08-05T07:05:25;6.13;;;3.20;;
15950;SDS011;8074;48.112;11.570;2022-08-05T07:07:53;5.50;;;2.90;;
15950;SDS011;8074;48.112;11.570;2022-08-05T07:10:20;5.07;;;3.47;;
15950;SDS011;8074;48.112;11.570;2022-08-05T07:12:49;4.07;;;2.70;;
15950;SDS011;8074;48.112;11.570;2022-08-05T07:15:33;5.60;;;3.17;;
15950;SDS011;8074;48.112;11.570;2022-08-05T07:18:18;5.07;;;3.07;;
15950;SDS011;8074;48.112;11.570;2022-08-05T07:20:45;6.23;;;3.37;;
15950;SDS011;8074;48.112;11.570;2022-08-05T07:23:13;3.27;;;2.97;;
15950;SDS011;8074;48.112;11.570;2022-08-05T07:25:40;4.47;;;3.17;;
15950;SDS011;8074;48.112;11.570;2022-08-05T07:28:07;9.37;;;3.23;;
15950;SDS011;8074;48.112;11.570;2022-08-05T07:30:34;6.20;;;3.10;;
15950;SDS011;8074;48.112;11.570;2022-08-05T07:33:02;7.50;;;3.20;;
15950;SDS011;8074;48.112;11.570;2022-08-05T07:35:30;4.50;;;2.70;;
15950;SDS011;8074;48.112;11.570;2022-08-05T07:37:58;5.10;;;3.10;;
15950;SDS011;8074;48.112;11.570;2022-08-05T07:40:26;5.17;;;3.17;;
15950;SDS011;8074;48.112;11.570;2022-08-05T07:42:53;5.10;;;3.10;;
15950;SDS011;8074;48.112;11.570;2022-08-05T07:45:20;4.13;;;2.97;;
15950;SDS011;8074;48.112;11.570;2022-08-05T07:47:47;6.83;;;3.43;;
15950;SDS011;8074;48.112;11.570;2022-08-05T07:50:14;4.37;;;3.30;;
15950;SDS011;8074;48.112;11.570;2022-08-05T07:52:42;3.63;;;3.30;;
15950;SDS011;8074;48.112;11.570;2022-08-05T07:55:09;16.13;;;3.37;;
15950;SDS011;8074;48.112;11.570;2022-08-05T07:57:38;3.97;;;2.90;;
15950;SDS011;8074;48.112;11.570;2022-08-05T08:00:05;7.20;;;3.73;;
15950;SDS011;8074;48.112;11.570;2022-08-05T08:02:33;6.97;;;3.50;;
15950;SDS011;8074;48.112;11.570;2022-08-05T08:05:00;4.17;;;3.57;;
15950;SDS011;8074;48.112;11.570;2022-08-05T08:07:27;8.20;;;3.50;;
15950;SDS011;8074;48.112;11.570;2022-08-05T08:09:54;9.63;;;3.20;;
15950;SDS011;8074;48.112;11.570;2022-08-05T08:12:21;9.20;;;3.50;;
15950;SDS011;8074;48.112;11.570;2022-08-05T08:14:50;5.37;;;3.40;;
15950;SDS011;8074;48.112;11.570;2022-08-05T08:17:18;6.07;;;3.50;;
15950;SDS011;8074;48.112;11.570;2022-08-05T08:19:45;7.20;;;3.60;;
15950;SDS011;8074;48.112;11.570;2022-08-05T08:22:12;7.57;;;3.60;;
15950;SDS011;8074;48.112;11.570;2022-08-05T08:24:39;6.10;;;3.80;;
15950;SDS011;8074;48.112;11.570;2022-08-05T08:27:06;7.30;;;3.53;;
15950;SDS011;8074;48.112;11.570;2022-08-05T08:29:34;8.03;;;3.43;;
15950;SDS011;8074;48.112;11.570;2022-08-05T08:32:28;9.17;;;4.10;;
15950;SDS011;8074;48.112;11.570;2022-08-05T08:34:55;5.33;;;3.57;;
15950;SDS011;8074;48.112;11.570;2022-08-05T08:37:23;4.77;;;3.63;;
15950;SDS011;8074;48.112;11.570;2022-08-05T08:39:50;16.37;;;3.90;;
15950;SDS011;8074;48.112;11.570;2022-08-05T08:42:17;8.63;;;3.90;;
15950;SDS011;8074;48.112;11.570;2022-08-05T08:44:47;8.43;;;4.43;;
15950;SDS011;8074;48.112;11.570;2022-08-05T08:47:15;9.33;;;3.70;;
15950;SDS011;8074;48.112;11.570;2022-08-05T08:49:48;8.20;;;3.77;;
15950;SDS011;8074;48.112;11.570;2022-08-05T08:52:18;7.83;;;4.10;;
15950;SDS011;8074;48.112;11.570;2022-08-05T08:54:50;9.60;;;3.97;;
15950;SDS011;8074;48.112;11.570;2022-08-05T08:57:18;9.03;;;4.10;;
15950;SDS011;8074;48.112;11.570;2022-08-05T08:59:47;7.60;;;3.90;;
15950;SDS011;8074;48.112;11.570;2022-08-05T09:02:16;8.73;;;4.23;;
15950;SDS011;8074;48.112;11.570;2022-08-05T09:04:45;8.63;;;3.80;;
15950;SDS011;8074;48.112;11.570;2022-08-05T09:07:14;6.33;;;3.97;;
15950;SDS011;8074;48.112;11.570;2022-08-05T09:09:41;9.70;;;4.50;;
15950;SDS011;8074;48.112;11.570;2022-08-05T09:12:09;10.23;;;4.10;;
15950;SDS011;8074;48.112;11.570;2022-08-05T09:14:36;5.13;;;3.83;;
15950;SDS011;8074;48.112;11.570;2022-08-05T09:17:05;5.30;;;3.57;;
15950;SDS011;8074;48.112;11.570;2022-08-05T09:19:33;11.57;;;3.73;;
15950;SDS011;8074;48.112;11.570;2022-08-05T09:22:01;6.33;;;3.87;;
15950;SDS011;8074;48.112;11.570;2022-08-05T09:24:28;6.83;;;3.70;;
15950;SDS011;8074;48.112;11.570;2022-08-05T09:26:57;7.17;;;3.60;;
15950;SDS011;8074;48.112;11.570;2022-08-05T09:29:36;6.77;;;4.10;;
15950;SDS011;8074;48.112;11.570;2022-08-05T09:32:07;5.93;;;3.50;;
15950;SDS011;8074;48.112;11.570;2022-08-05T09:34:48;8.80;;;3.70;;
15950;SDS011;8074;48.112;11.570;2022-08-05T09:37:18;6.87;;;3.97;;
15950;SDS011;8074;48.112;11.570;2022-08-05T09:39:46;7.20;;;3.83;;
15950;SDS011;8074;48.112;11.570;2022-08-05T09:42:13;7.07;;;3.70;;
15950;SDS011;8074;48.112;11.570;2022-08-05T09:44:42;8.30;;;4.20;;
15950;SDS011;8074;48.112;11.570;2022-08-05T09:47:12;6.43;;;3.30;;
15950;SDS011;8074;48.112;11.570;2022-08-05T09:49:41;7.70;;;3.70;;
15950;SDS011;8074;48.112;11.570;2022-08-05T09:52:21;6.40;;;3.80;;
15950;SDS011;8074;48.112;11.570;2022-08-05T09:54:56;8.00;;;3.40;;
15950;SDS011;8074;48.112;11.570;2022-08-05T09:57:28;6.63;;;3.57;;
15950;SDS011;8074;48.112;11.570;2022-08-05T09:59:57;8.13;;;3.43;;
15950;SDS011;8074;48.112;11.570;2022-08-05T10:02:32;10.80;;;3.70;;
15950;SDS011;8074;48.112;11.570;2022-08-05T10:05:05;4.37;;;2.90;;
15950;SDS011;8074;48.112;11.570;2022-08-05T10:07:44;7.93;;;3.43;;
15950;SDS011;8074;48.112;11.570;2022-08-05T10:10:12;9.17;;;3.50;;
15950;SDS011;8074;48.112;11.570;2022-08-05T10:12:40;10.00;;;3.43;;
15950;SDS011;8074;48.112;11.570;2022-08-05T10:15:13;6.50;;;4.30;;
15950;SDS011;8074;48.112;11.570;2022-08-05T10:18:04;7.70;;;3.57;;
15950;SDS011;8074;48.112;11.570;2022-08-05T10:20:37;10.83;;;3.50;;
15950;SDS011;8074;48.112;11.570;2022-08-05T10:23:13;8.97;;;3.57;;
15950;SDS011;8074;48.112;11.570;2022-08-05T10:25:43;5.90;;;3.20;;
15950;SDS011;8074;48.112;11.570;2022-08-05T10:28:10;11.00;;;3.50;;
15950;SDS011;8074;48.112;11.570;2022-08-05T10:30:38;8.40;;;4.13;;
15950;SDS011;8074;48.112;11.570;2022-08-05T10:33:05;12.37;;;5.53;;
15950;SDS011;8074;48.112;11.570;2022-08-05T10:35:36;5.20;;;3.07;;
15950;SDS011;8074;48.112;11.570;2022-08-05T10:38:03;14.63;;;4.70;;
15950;SDS011;8074;48.112;11.570;2022-08-05T10:40:34;13.33;;;6.93;;
15950;SDS011;8074;48.112;11.570;2022-08-05T10:43:08;5.47;;;3.77;;
15950;SDS011;8074;48.112;11.570;2022-08-05T10:45:39;6.13;;;3.20;;
15950;SDS011;8074;48.112;11.570;2022-08-05T10:50:57;5.23;;;3.10;;
15950;SDS011;8074;48.112;11.570;2022-08-05T10:53:34;9.17;;;3.20;;
15950;SDS011;8074;48.112;11.570;2022-08-05T10:56:06;4.33;;;2.80;;
15950;SDS011;8074;48.112;11.570;2022-08-05T10:58:35;9.77;;;3.10;;
15950;SDS011;8074;48.112;11.570;2022-08-05T11:01:12;7.50;;;3.23;;
15950;SDS011;8074;48.112;11.570;2022-08-05T11:06:28;6.40;;;2.97;;
15950;SDS011;8074;48.112;11.570;2022-08-05T11:11:55;9.97;;;3.03;;
15950;SDS011;8074;48.112;11.570;2022-08-05T11:14:24;5.30;;;2.93;;
15950;SDS011;8074;48.112;11.570;2022-08-05T11:19:55;7.30;;;3.10;;
15950;SDS011;8074;48.112;11.570;2022-08-05T11:22:40;3.90;;;2.83;;
15950;SDS011;8074;48.112;11.570;2022-08-05T11:25:28;5.83;;;2.83;;
15950;SDS011;8074;48.112;11.570;2022-08-05T11:34:20;8.87;;;2.73;;
15950;SDS011;8074;48.112;11.570;2022-08-05T11:37:26;6.63;;;2.57;;
15950;SDS011;8074;48.112;11.570;2022-08-05T11:43:28;5.30;;;3.33;;
15950;SDS011;8074;48.112;11.570;2022-08-05T11:45:56;5.23;;;2.77;;
15950;SDS011;8074;48.112;11.570;2022-08-05T11:48:25;5.93;;;2.90;;
15950;SDS011;8074;48.112;11.570;2022-08-05T11:50:53;6.17;;;2.90;;
15950;SDS011;8074;48.112;11.570;2022-08-05T11:53:20;7.07;;;2.87;;
15950;SDS011;8074;48.112;11.570;2022-08-05T11:55:51;6.30;;;2.83;;
15950;SDS011;8074;48.112;11.570;2022-08-05T11:58:46;7.20;;;3.23;;
15950;SDS011;8074;48.112;11.570;2022-08-05T12:01:15;6.10;;;2.90;;
15950;SDS011;8074;48.112;11.570;2022-08-05T12:03:46;6.17;;;3.43;;
15950;SDS011;8074;48.112;11.570;2022-08-05T12:06:15;8.00;;;3.00;;
15950;SDS011;8074;48.112;11.570;2022-08-05T12:08:45;4.73;;;2.83;;
15950;SDS011;8074;48.112;11.570;2022-08-05T12:11:16;8.57;;;2.93;;
15950;SDS011;8074;48.112;11.570;2022-08-05T12:13:53;8.37;;;3.53;;
15950;SDS011;8074;48.112;11.570;2022-08-05T12:16:22;6.73;;;3.20;;
15950;SDS011;8074;48.112;11.570;2022-08-05T12:18:53;7.40;;;3.00;;
15950;SDS011;8074;48.112;11.570;2022-08-05T12:21:27;5.53;;;3.03;;
15950;SDS011;8074;48.112;11.570;2022-08-05T12:23:59;9.00;;;3.10;;
15950;SDS011;8074;48.112;11.570;2022-08-05T12:26:31;5.87;;;3.20;;
15950;SDS011;8074;48.112;11.570;2022-08-05T12:28:59;7.40;;;2.70;;
15950;SDS011;8074;48.112;11.570;2022-08-05T12:31:26;7.77;;;3.20;;
15950;SDS011;8074;48.112;11.570;2022-08-05T12:33:55;5.13;;;2.90;;
15950;SDS011;8074;48.112;11.570;2022-08-05T12:36:22;4.27;;;3.13;;
15950;SDS011;8074;48.112;11.570;2022-08-05T12:38:50;6.37;;;2.90;;
15950;SDS011;8074;48.112;11.570;2022-08-05T12:41:17;4.77;;;3.00;;
15950;SDS011;8074;48.112;11.570;2022-08-05T12:43:47;6.43;;;2.80;;
15950;SDS011;8074;48.112;11.570;2022-08-05T12:46:20;4.87;;;2.93;;
15950;SDS011;8074;48.112;11.570;2022-08-05T12:51:16;5.60;;;2.83;;
15950;SDS011;8074;48.112;11.570;2022-08-05T12:53:44;4.73;;;2.77;;
15950;SDS011;8074;48.112;11.570;2022-08-05T12:56:16;4.97;;;2.77;;
15950;SDS011;8074;48.112;11.570;2022-08-05T12:59:11;4.27;;;2.60;;
15950;SDS011;8074;48.112;11.570;2022-08-05T13:02:01;5.80;;;2.90;;
15950;SDS011;8074;48.112;11.570;2022-08-05T13:04:50;4.87;;;2.80;;
15950;SDS011;8074;48.112;11.570;2022-08-05T13:07:41;5.90;;;3.20;;
15950;SDS011;8074;48.112;11.570;2022-08-05T13:10:30;6.57;;;3.17;;
15950;SDS011;8074;48.112;11.570;2022-08-05T13:13:18;3.47;;;2.97;;
15950;SDS011;8074;48.112;11.570;2022-08-05T13:16:10;5.97;;;2.73;;
15950;SDS011;8074;48.112;11.570;2022-08-05T13:18:59;3.40;;;2.97;;
15950;SDS011;8074;48.112;11.570;2022-08-05T13:21:47;4.73;;;3.00;;
15950;SDS011;8074;48.112;11.570;2022-08-05T13:24:37;12.07;;;2.90;;
15950;SDS011;8074;48.112;11.570;2022-08-05T13:27:29;11.20;;;3.20;;
15950;SDS011;8074;48.112;11.570;2022-08-05T13:30:32;5.53;;;3.10;;
15950;SDS011;8074;48.112;11.570;2022-08-05T13:33:19;7.53;;;3.77;;
15950;SDS011;8074;48.112;11.570;2022-08-05T13:36:07;5.27;;;2.73;;
15950;SDS011;8074;48.112;11.570;2022-08-05T13:38:55;4.87;;;2.90;;
15950;SDS011;8074;48.112;11.570;2022-08-05T13:41:44;6.90;;;2.70;;
15950;SDS011;8074;48.112;11.570;2022-08-05T13:44:32;4.93;;;2.67;;
15950;SDS011;8074;48.112;11.570;2022-08-05T13:47:42;9.10;;;2.77;;
15950;SDS011;8074;48.112;11.570;2022-08-05T13:50:38;7.80;;;2.80;;
15950;SDS011;8074;48.112;11.570;2022-08-05T13:53:26;7.27;;;2.70;;
15950;SDS011;8074;48.112;11.570;2022-08-05T13:56:13;6.30;;;2.80;;
15950;SDS011;8074;48.112;11.570;2022-08-05T13:59:02;4.47;;;2.80;;
15950;SDS011;8074;48.112;11.570;2022-08-05T14:01:50;4.93;;;2.63;;
15950;SDS011;8074;48.112;11.570;2022-08-05T14:04:38;6.40;;;3.03;;
15950;SDS011;8074;48.112;11.570;2022-08-05T14:07:45;9.23;;;3.00;;
15950;SDS011;8074;48.112;11.570;2022-08-05T14:10:32;6.40;;;3.37;;
15950;SDS011;8074;48.112;11.570;2022-08-05T14:13:19;6.57;;;3.63;;
15950;SDS011;8074;48.112;11.570;2022-08-05T14:16:09;6.37;;;2.83;;
15950;SDS011;8074;48.112;11.570;2022-08-05T14:18:56;4.10;;;2.60;;
15950;SDS011;8074;48.112;11.570;2022-08-05T14:21:46;3.07;;;2.70;;
15950;SDS011;8074;48.112;11.570;2022-08-05T14:24:33;4.27;;;2.70;;
15950;SDS011;8074;48.112;11.570;2022-08-05T14:27:22;5.27;;;2.37;;
15950;SDS011;8074;48.112;11.570;2022-08-05T14:30:10;4.27;;;2.60;;
15950;SDS011;8074;48.112;11.570;2022-08-05T14:32:59;4.97;;;2.80;;
15950;SDS011;8074;48.112;11.570;2022-08-05T14:35:48;7.35;;;2.67;;
15950;SDS011;8074;48.112;11.570;2022-08-05T14:38:40;6.30;;;2.93;;
15950;SDS011;8074;48.112;11.570;2022-08-05T14:41:27;5.90;;;2.80;;
15950;SDS011;8074;48.112;11.570;2022-08-05T14:44:15;2.97;;;2.50;;
15950;SDS011;8074;48.112;11.570;2022-08-05T14:47:02;2.70;;;2.20;;
15950;SDS011;8074;48.112;11.570;2022-08-05T14:49:51;2.80;;;2.50;;
15950;SDS011;8074;48.112;11.570;2022-08-05T14:52:44;4.03;;;2.60;;
15950;SDS011;8074;48.112;11.570;2022-08-05T14:55:33;6.10;;;3.10;;
15950;SDS011;8074;48.112;11.570;2022-08-05T14:58:27;4.83;;;3.07;;
15950;SDS011;8074;48.112;11.570;2022-08-05T15:01:03;5.18;;;2.45;;
15950;SDS011;8074;48.112;11.570;2022-08-05T15:03:56;6.30;;;2.80;;
15950;SDS011;8074;48.112;11.570;2022-08-05T15:06:49;6.18;;;2.38;;
15950;SDS011;8074;48.112;11.570;2022-08-05T15:09:50;6.38;;;2.60;;
15950;SDS011;8074;48.112;11.570;2022-08-05T15:12:22;5.75;;;2.70;;
15950;SDS011;8074;48.112;11.570;2022-08-05T15:14:50;5.88;;;2.65;;
15950;SDS011;8074;48.112;11.570;2022-08-05T15:17:17;4.68;;;2.63;;
15950;SDS011;8074;48.112;11.570;2022-08-05T15:19:45;4.63;;;2.80;;
15950;SDS011;8074;48.112;11.570;2022-08-05T15:22:13;7.95;;;2.28;;
15950;SDS011;8074;48.112;11.570;2022-08-05T15:24:41;5.20;;;2.72;;
15950;SDS011;8074;48.112;11.570;2022-08-05T15:27:14;5.63;;;2.88;;
15950;SDS011;8074;48.112;11.570;2022-08-05T15:29:57;4.85;;;2.80;;
15950;SDS011;8074;48.112;11.570;2022-08-05T15:32:29;4.75;;;2.85;;
15950;SDS011;8074;48.112;11.570;2022-08-05T15:34:57;6.63;;;2.85;;
15950;SDS011;8074;48.112;11.570;2022-08-05T15:37:26;7.43;;;2.75;;
15950;SDS011;8074;48.112;11.570;2022-08-05T15:39:58;5.75;;;2.60;;
15950;SDS011;8074;48.112;11.570;2022-08-05T15:42:26;5.82;;;2.90;;
15950;SDS011;8074;48.112;11.570;2022-08-05T15:44:58;5.37;;;2.87;;
15950;SDS011;8074;48.112;11.570;2022-08-05T15:47:25;7.87;;;2.83;;
15950;SDS011;8074;48.112;11.570;2022-08-05T15:49:52;7.90;;;2.83;;
15950;SDS011;8074;48.112;11.570;2022-08-05T15:52:20;6.87;;;3.00;;